Time;durP1;ratioP1;P1;durP2;ratioP2;P2;SDS_P1;SDS_P2;PMS_P1;PMS_P2;Temp;Humidity;BMP_temperature;BMP_pressure;BME280_temperature;BME280_humidity;BME280_pressure;Samples;Min_cycle;Max_cycle;Signal;HPM_P1;HPM_P2
2021/03/10 00:02:12;;;;;;;52.88;28.80;;;4.90;99.90;;;;;;5044382;28;20489;-81
2021/03/10 00:04:38;;;;;;;54.70;27.67;;;5.00;99.90;;;;;;5036834;28;20029;-79
2021/03/10 00:07:04;;;;;;;61.20;28.23;;;5.00;99.90;;;;;;5046156;28;20492;-78
2021/03/10 00:09:30;;;;;;;54.75;27.98;;;4.90;99.90;;;;;;5042769;28;20040;-79
2021/03/10 00:11:56;;;;;;;60.75;28.83;;;5.00;99.90;;;;;;5043418;28;20044;-79
2021/03/10 00:14:22;;;;;;;56.97;29.58;;;5.00;99.90;;;;;;5041973;28;20037;-80
2021/03/10 00:16:48;;;;;;;58.05;29.85;;;4.90;99.90;;;;;;5044378;28;20041;-79
2021/03/10 00:19:14;;;;;;;60.03;29.60;;;4.90;99.90;;;;;;5040970;28;20055;-81
2021/03/10 00:21:40;;;;;;;54.17;29.40;;;4.90;99.90;;;;;;5045289;28;20120;-81
2021/03/10 00:24:06;;;;;;;55.08;28.60;;;4.80;99.90;;;;;;5044996;28;20767;-81
2021/03/10 00:26:32;;;;;;;58.30;29.00;;;4.80;99.90;;;;;;5044128;28;20656;-80
2021/03/10 00:28:59;;;;;;;68.03;32.67;;;4.80;99.90;;;;;;5037159;28;20033;-80
2021/03/10 00:31:25;;;;;;;62.30;31.00;;;4.70;99.90;;;;;;5035916;28;20029;-79
2021/03/10 00:33:51;;;;;;;65.63;32.17;;;4.70;99.90;;;;;;5042461;28;20037;-80
2021/03/10 00:36:19;;;;;;;69.18;30.83;;;4.70;99.90;;;;;;5040543;28;20033;-80
2021/03/10 00:38:45;;;;;;;62.03;32.17;;;4.70;99.90;;;;;;5040661;28;20041;-80
2021/03/10 00:41:11;;;;;;;62.90;31.05;;;5.20;99.90;;;;;;5037634;28;20052;-81
2021/03/10 00:43:37;;;;;;;64.03;31.65;;;4.70;99.90;;;;;;5037311;28;20122;-82
2021/03/10 00:46:03;;;;;;;54.35;28.63;;;4.60;99.90;;;;;;5039430;28;20471;-78
2021/03/10 00:48:29;;;;;;;55.15;28.85;;;4.70;99.90;;;;;;5036062;28;20485;-80
2021/03/10 00:50:54;;;;;;;61.20;30.60;;;4.70;99.90;;;;;;5040755;28;20044;-79
2021/03/10 00:53:20;;;;;;;57.53;29.17;;;4.60;99.90;;;;;;5035072;28;20144;-78
2021/03/10 00:55:46;;;;;;;61.10;30.60;;;4.60;99.90;;;;;;5035791;28;20418;-76
2021/03/10 00:58:12;;;;;;;58.42;29.35;;;4.50;99.90;;;;;;5040323;28;20418;-79
2021/03/10 01:00:38;;;;;;;54.75;28.02;;;4.40;99.90;;;;;;5041684;28;20037;-79
2021/03/10 01:03:04;;;;;;;59.33;29.30;;;4.40;99.90;;;;;;5043340;28;20037;-79
2021/03/10 01:05:33;;;;;;;62.42;31.58;;;4.40;99.90;;;;;;5044043;28;20414;-78
2021/03/10 01:07:58;;;;;;;61.83;29.27;;;4.30;99.90;;;;;;5039004;28;20029;-81
2021/03/10 01:10:25;;;;;;;61.28;30.23;;;3.90;99.90;;;;;;5043208;28;20034;-79
2021/03/10 01:12:51;;;;;;;58.10;29.65;;;4.30;99.90;;;;;;5037361;28;20150;-77
2021/03/10 01:15:20;;;;;;;59.03;30.55;;;4.40;99.90;;;;;;5045773;28;20041;-79
2021/03/10 01:17:46;;;;;;;56.95;29.25;;;4.30;99.90;;;;;;5041073;28;20056;-80
2021/03/10 01:20:15;;;;;;;54.58;28.20;;;4.40;99.90;;;;;;5044401;28;20041;-78
2021/03/10 01:22:41;;;;;;;63.15;31.88;;;4.40;99.90;;;;;;5049096;28;20033;-81
2021/03/10 01:25:08;;;;;;;58.92;30.25;;;4.50;99.90;;;;;;5037464;28;20072;-78
2021/03/10 01:27:35;;;;;;;60.58;30.42;;;4.50;99.90;;;;;;5048308;28;20083;-78
2021/03/10 01:30:03;;;;;;;68.57;32.90;;;4.40;99.90;;;;;;5049282;28;20025;-78
2021/03/10 01:32:29;;;;;;;62.03;30.40;;;4.40;99.90;;;;;;5045191;28;20099;-79
2021/03/10 01:34:55;;;;;;;62.65;31.20;;;4.50;99.90;;;;;;5044691;28;20445;-78
2021/03/10 01:37:21;;;;;;;62.70;31.58;;;5.10;99.90;;;;;;5041629;28;20034;-78
2021/03/10 01:39:46;;;;;;;58.97;30.10;;;4.50;99.90;;;;;;5041724;28;20041;-78
2021/03/10 01:42:13;;;;;;;62.92;30.92;;;5.80;99.90;;;;;;5039342;28;20770;-78
2021/03/10 01:44:38;;;;;;;57.85;29.73;;;4.60;99.90;;;;;;5044526;28;20037;-79
2021/03/10 01:47:08;;;;;;;59.88;31.42;;;4.60;99.90;;;;;;5041897;28;20075;-78
2021/03/10 01:49:35;;;;;;;58.97;29.83;;;4.50;99.90;;;;;;5039903;28;20099;-79
2021/03/10 01:52:02;;;;;;;54.80;27.40;;;4.50;99.90;;;;;;5044500;28;20574;-78
2021/03/10 01:54:28;;;;;;;54.72;28.90;;;4.50;99.90;;;;;;5038454;28;20041;-79
2021/03/10 01:56:54;;;;;;;65.93;31.75;;;4.50;99.90;;;;;;5040699;28;20072;-78
2021/03/10 01:59:23;;;;;;;63.15;31.23;;;4.30;99.90;;;;;;5041990;28;20318;-79
2021/03/10 02:01:48;;;;;;;58.58;29.95;;;4.20;99.90;;;;;;5038558;28;20067;-78
2021/03/10 02:04:15;;;;;;;59.22;30.55;;;4.10;99.90;;;;;;5044187;28;20050;-78
2021/03/10 02:06:41;;;;;;;61.35;29.00;;;4.00;99.90;;;;;;5041875;28;20045;-77
2021/03/10 02:09:16;;;;;;;59.53;30.48;;;4.10;99.90;;;;;;5039967;28;20043;-78
2021/03/10 02:11:57;;;;;;;63.40;30.45;;;4.10;99.90;;;;;;5039662;28;20055;-77
2021/03/10 02:14:35;;;;;;;62.67;30.85;;;4.10;99.90;;;;;;5043944;28;20051;-80
2021/03/10 02:17:05;;;;;;;61.22;29.92;;;4.10;99.90;;;;;;5036762;28;20045;-77
2021/03/10 02:19:50;;;;;;;62.72;30.58;;;4.10;99.90;;;;;;5042471;28;20076;-76
2021/03/10 02:22:57;;;;;;;62.03;30.17;;;4.10;99.90;;;;;;5040997;28;20486;-77
2021/03/10 02:28:01;;;;;;;56.15;28.58;;;4.10;99.90;;;;;;5386343;22;20765;-77
2021/03/10 02:30:42;;;;;;;57.65;29.77;;;4.10;99.90;;;;;;5031277;28;20035;-77
2021/03/10 02:33:17;;;;;;;62.42;29.33;;;4.10;99.90;;;;;;5036967;28;20120;-79
2021/03/10 02:35:46;;;;;;;62.97;30.95;;;4.10;99.90;;;;;;5032798;28;20067;-77
2021/03/10 02:38:19;;;;;;;59.70;29.15;;;4.10;99.90;;;;;;5038477;28;20394;-79
2021/03/10 02:40:47;;;;;;;60.42;29.98;;;4.10;99.90;;;;;;5028698;28;22521;-79
2021/03/10 02:43:14;;;;;;;58.67;30.00;;;4.10;99.90;;;;;;5031998;28;20120;-76
2021/03/10 02:45:42;;;;;;;59.72;30.35;;;4.10;99.90;;;;;;5041514;28;20045;-78
2021/03/10 02:48:09;;;;;;;63.67;29.02;;;4.10;99.90;;;;;;5040630;28;20049;-80
2021/03/10 02:50:36;;;;;;;57.33;29.45;;;4.20;99.90;;;;;;5038458;28;20440;-79
2021/03/10 02:53:04;;;;;;;61.25;30.00;;;4.20;99.90;;;;;;5040672;28;20102;-78
2021/03/10 02:55:32;;;;;;;57.53;28.80;;;4.20;99.90;;;;;;5034307;28;20056;-80
2021/03/10 02:57:59;;;;;;;61.25;30.15;;;4.20;99.90;;;;;;5044527;28;20068;-79
2021/03/10 03:00:26;;;;;;;63.63;30.63;;;4.20;99.90;;;;;;5041962;28;20063;-81
2021/03/10 03:02:51;;;;;;;62.70;30.17;;;4.20;99.90;;;;;;5038880;28;20036;-79
2021/03/10 03:05:18;;;;;;;64.15;30.15;;;4.10;99.90;;;;;;5035010;28;20639;-80
2021/03/10 03:07:46;;;;;;;61.20;30.20;;;4.10;99.90;;;;;;5037785;28;20481;-78
2021/03/10 03:10:19;;;;;;;60.45;29.63;;;4.00;99.90;;;;;;5035774;28;20502;-80
2021/03/10 03:12:46;;;;;;;59.60;29.95;;;4.00;99.90;;;;;;5042134;28;20965;-80
2021/03/10 03:15:15;;;;;;;61.22;29.58;;;4.00;99.90;;;;;;5040796;28;20056;-79
2021/03/10 03:17:42;;;;;;;62.80;30.15;;;4.00;99.90;;;;;;5035324;28;20033;-78
2021/03/10 03:20:10;;;;;;;63.92;31.08;;;4.00;99.90;;;;;;5037423;28;20036;-79
2021/03/10 03:22:42;;;;;;;62.17;31.50;;;4.00;99.90;;;;;;5040749;28;20093;-80
2021/03/10 03:25:15;;;;;;;63.30;31.10;;;4.00;99.90;;;;;;5041165;28;20124;-82
2021/03/10 03:27:42;;;;;;;61.55;30.42;;;4.00;99.90;;;;;;5040327;28;20041;-78
2021/03/10 03:30:10;;;;;;;62.88;30.13;;;4.00;99.90;;;;;;5033213;28;20049;-80
2021/03/10 03:32:37;;;;;;;57.70;28.50;;;4.00;99.90;;;;;;5057317;28;20047;-79
2021/03/10 03:35:05;;;;;;;60.88;30.80;;;4.00;99.90;;;;;;5031965;28;20041;-78
2021/03/10 03:37:31;;;;;;;57.08;29.38;;;4.10;99.90;;;;;;5036713;28;20065;-81
2021/03/10 03:39:58;;;;;;;57.25;29.30;;;4.10;99.90;;;;;;5040711;28;20056;-78
2021/03/10 03:42:23;;;;;;;58.50;29.30;;;4.00;99.90;;;;;;5043571;28;20029;-78
2021/03/10 03:44:49;;;;;;;60.55;29.90;;;4.00;99.90;;;;;;5037118;28;20033;-79
2021/03/10 03:47:17;;;;;;;57.15;29.77;;;4.00;99.90;;;;;;5041068;28;20040;-80
2021/03/10 03:49:47;;;;;;;59.90;30.10;;;4.00;99.90;;;;;;5037424;28;20159;-79
2021/03/10 03:52:14;;;;;;;58.97;29.02;;;4.00;99.90;;;;;;5033220;28;20037;-81
2021/03/10 03:54:40;;;;;;;59.00;28.83;;;4.10;99.90;;;;;;5039631;28;20035;-78
2021/03/10 03:57:06;;;;;;;57.47;28.77;;;4.10;99.90;;;;;;5041542;28;20037;-79
2021/03/10 03:59:32;;;;;;;61.90;30.10;;;4.10;99.90;;;;;;5042215;28;20032;-78
2021/03/10 04:01:57;;;;;;;59.30;29.60;;;4.20;99.90;;;;;;5038525;28;20047;-80
2021/03/10 04:04:23;;;;;;;58.40;30.08;;;4.10;99.90;;;;;;5037311;28;20163;-80
2021/03/10 04:06:49;;;;;;;60.08;29.48;;;4.10;99.90;;;;;;5042500;28;20086;-79
2021/03/10 04:09:16;;;;;;;58.65;30.23;;;4.10;99.90;;;;;;5041276;28;20033;-82
2021/03/10 04:11:48;;;;;;;55.88;28.27;;;4.10;99.90;;;;;;5039511;28;20040;-79
2021/03/10 04:14:16;;;;;;;55.50;28.80;;;4.20;99.90;;;;;;5040787;28;20045;-79
2021/03/10 04:16:42;;;;;;;57.42;27.95;;;4.10;99.90;;;;;;5038433;28;20429;-79
2021/03/10 04:19:09;;;;;;;62.92;30.73;;;4.20;99.90;;;;;;5043433;28;20072;-79
2021/03/10 04:21:35;;;;;;;57.83;28.80;;;4.20;99.90;;;;;;5041632;28;20043;-79
2021/03/10 04:24:01;;;;;;;59.53;29.92;;;4.20;99.90;;;;;;5041438;28;20032;-78
2021/03/10 04:26:27;;;;;;;61.10;28.75;;;4.30;99.90;;;;;;5045580;28;20052;-79
2021/03/10 04:28:53;;;;;;;59.13;28.65;;;4.20;99.90;;;;;;5044806;28;20041;-79
2021/03/10 04:31:19;;;;;;;57.72;28.73;;;4.20;99.90;;;;;;5044136;28;20043;-80
2021/03/10 04:33:44;;;;;;;59.83;29.73;;;4.30;99.90;;;;;;5042218;28;20090;-81
2021/03/10 04:36:10;;;;;;;60.92;29.25;;;4.30;99.90;;;;;;5043289;28;20045;-78
2021/03/10 04:38:36;;;;;;;61.70;29.67;;;4.30;99.90;;;;;;5046742;28;20045;-81
2021/03/10 04:41:03;;;;;;;60.53;30.02;;;4.20;99.90;;;;;;5043607;28;20496;-79
2021/03/10 04:43:29;;;;;;;55.58;29.48;;;4.20;99.90;;;;;;5038312;28;20036;-79
2021/03/10 04:45:55;;;;;;;56.08;29.23;;;4.20;99.90;;;;;;5040399;28;20040;-80
2021/03/10 04:48:21;;;;;;;59.22;30.05;;;4.20;99.90;;;;;;5047545;28;20119;-80
2021/03/10 04:50:47;;;;;;;61.10;30.45;;;4.20;99.90;;;;;;5037815;28;20568;-80
2021/03/10 04:53:13;;;;;;;59.95;31.48;;;4.10;99.90;;;;;;5042971;28;20068;-82
2021/03/10 04:55:39;;;;;;;63.38;31.63;;;4.10;99.90;;;;;;5039071;28;20127;-81
2021/03/10 04:58:06;;;;;;;58.55;30.55;;;4.20;99.90;;;;;;5046458;28;20060;-84
2021/03/10 05:00:32;;;;;;;60.17;30.08;;;4.20;99.90;;;;;;5041744;28;20047;-78
2021/03/10 05:02:57;;;;;;;61.53;30.30;;;4.10;99.90;;;;;;5024555;28;20135;-78
2021/03/10 05:05:23;;;;;;;65.60;32.85;;;4.20;99.90;;;;;;5039798;28;20040;-78
2021/03/10 05:07:49;;;;;;;60.92;30.40;;;4.20;99.90;;;;;;5040370;28;20041;-78
2021/03/10 05:10:16;;;;;;;63.78;30.85;;;4.20;99.90;;;;;;5041580;28;20457;-79
2021/03/10 05:12:41;;;;;;;62.72;30.27;;;4.20;99.90;;;;;;5031791;28;20049;-79
2021/03/10 05:15:08;;;;;;;61.75;31.13;;;4.20;99.90;;;;;;5037094;28;20033;-80
2021/03/10 05:17:35;;;;;;;64.45;31.20;;;4.30;99.90;;;;;;5040770;28;20033;-79
2021/03/10 05:20:03;;;;;;;57.60;29.58;;;4.30;99.90;;;;;;5053221;28;20040;-76
2021/03/10 05:22:29;;;;;;;57.88;29.98;;;3.70;99.90;;;;;;5041082;28;20124;-79
2021/03/10 05:24:55;;;;;;;60.13;29.50;;;4.30;99.90;;;;;;5036687;28;20096;-79
2021/03/10 05:27:22;;;;;;;59.50;29.63;;;4.20;99.90;;;;;;5035191;28;20127;-77
2021/03/10 05:29:48;;;;;;;59.92;30.65;;;4.20;99.90;;;;;;5026514;28;20045;-80
2021/03/10 05:32:14;;;;;;;57.10;30.20;;;4.30;99.90;;;;;;5032548;28;20037;-80
2021/03/10 05:34:40;;;;;;;60.80;30.17;;;4.30;99.90;;;;;;5039792;28;20020;-80
2021/03/10 05:37:06;;;;;;;62.28;31.77;;;4.20;99.90;;;;;;5048327;28;20041;-79
2021/03/10 05:39:31;;;;;;;59.67;30.70;;;4.20;99.90;;;;;;5042585;28;20033;-80
2021/03/10 05:41:58;;;;;;;61.00;30.02;;;4.20;99.90;;;;;;5041938;28;20045;-79
2021/03/10 05:44:28;;;;;;;59.65;29.88;;;4.20;99.90;;;;;;5043851;28;20060;-80
2021/03/10 05:46:54;;;;;;;61.53;31.80;;;4.20;99.90;;;;;;5047008;28;20111;-79
2021/03/10 05:49:21;;;;;;;62.67;31.23;;;4.20;99.90;;;;;;5045910;28;20029;-79
2021/03/10 05:51:49;;;;;;;63.95;31.50;;;4.20;99.90;;;;;;5046213;28;20037;-78
2021/03/10 05:54:16;;;;;;;65.47;31.92;;;4.20;99.90;;;;;;5044724;28;20113;-79
2021/03/10 05:56:43;;;;;;;67.05;32.17;;;4.30;99.90;;;;;;5047293;28;20409;-80
2021/03/10 05:59:08;;;;;;;58.30;30.50;;;4.20;99.90;;;;;;5038147;28;20134;-79
2021/03/10 06:01:34;;;;;;;63.22;31.17;;;4.20;99.90;;;;;;5022258;28;20510;-79
2021/03/10 06:04:03;;;;;;;63.30;32.38;;;4.20;99.90;;;;;;5042615;28;20509;-79
2021/03/10 06:06:39;;;;;;;68.40;32.33;;;4.20;99.90;;;;;;5052647;28;20038;-78
2021/03/10 06:09:18;;;;;;;65.85;31.25;;;4.30;99.90;;;;;;5046611;28;20021;-79
2021/03/10 06:12:02;;;;;;;66.20;32.20;;;4.40;99.90;;;;;;5049470;28;20084;-79
2021/03/10 06:14:28;;;;;;;64.00;31.27;;;4.40;99.90;;;;;;5044149;28;20158;-81
2021/03/10 06:17:09;;;;;;;65.50;32.78;;;4.40;99.90;;;;;;5053744;28;20037;-82
2021/03/10 06:19:42;;;;;;;61.58;30.75;;;4.40;99.90;;;;;;5043103;28;20445;-81
2021/03/10 06:22:10;;;;;;;65.03;32.55;;;4.40;99.90;;;;;;5040307;28;20043;-80
2021/03/10 06:24:36;;;;;;;63.90;32.40;;;4.50;99.90;;;;;;5046866;28;20067;-79
2021/03/10 06:27:02;;;;;;;68.18;32.20;;;4.50;99.90;;;;;;5041782;28;20044;-80
2021/03/10 06:29:28;;;;;;;65.03;32.08;;;4.40;99.90;;;;;;5035653;28;20052;-80
2021/03/10 06:32:20;;;;;;;64.22;32.05;;;4.40;99.90;;;;;;5037314;28;20025;-80
2021/03/10 06:34:48;;;;;;;63.30;32.20;;;4.50;99.90;;;;;;5034759;28;20106;-80
2021/03/10 06:37:28;;;;;;;70.95;34.50;;;4.40;99.90;;;;;;5042377;28;20297;-78
2021/03/10 06:40:09;;;;;;;65.13;32.75;;;4.50;99.90;;;;;;5042649;28;20556;-80
2021/03/10 06:42:35;;;;;;;;;;;4.50;99.90;;;;;;5047921;28;20140;-80
2021/03/10 06:45:01;;;;;;;76.45;32.90;;;4.50;99.90;;;;;;5037699;28;19999;-78
2021/03/10 06:47:38;;;;;;;75.68;35.83;;;4.70;99.90;;;;;;5039377;28;20047;-79
2021/03/10 06:50:06;;;;;;;70.65;34.78;;;4.60;99.90;;;;;;5042131;28;20037;-82
2021/03/10 06:52:32;;;;;;;67.45;34.42;;;4.70;99.90;;;;;;5041300;28;20255;-80
2021/03/10 06:54:59;;;;;;;66.47;31.35;;;4.70;99.90;;;;;;5036572;28;20033;-80
2021/03/10 06:57:25;;;;;;;62.40;31.88;;;4.70;99.90;;;;;;5032684;28;20040;-78
2021/03/10 06:59:53;;;;;;;68.15;32.78;;;4.80;99.90;;;;;;5039570;28;20034;-82
2021/03/10 07:02:26;;;;;;;71.95;33.15;;;4.80;99.90;;;;;;5031361;28;20068;-80
2021/03/10 07:04:56;;;;;;;64.97;32.58;;;4.90;99.90;;;;;;5037081;28;20175;-81
2021/03/10 07:07:24;;;;;;;67.70;33.65;;;5.00;99.90;;;;;;5039597;28;20095;-80
2021/03/10 07:09:50;;;;;;;66.40;31.88;;;5.00;99.90;;;;;;5047098;28;20219;-82
2021/03/10 07:12:21;;;;;;;68.63;32.53;;;5.00;99.90;;;;;;5040232;28;20037;-80
2021/03/10 07:14:47;;;;;;;;;;;5.10;99.90;;;;;;5041848;28;20504;-83
2021/03/10 07:17:15;;;;;;;72.15;33.92;;;5.10;99.90;;;;;;5041424;28;20121;-83
2021/03/10 07:19:41;;;;;;;67.20;31.65;;;5.20;99.90;;;;;;5038775;28;20037;-81
2021/03/10 07:22:17;;;;;;;64.75;32.60;;;5.20;99.90;;;;;;5030257;28;20118;-83
2021/03/10 07:24:53;;;;;;;63.53;32.63;;;5.30;99.90;;;;;;5031895;28;20056;-80
2021/03/10 07:27:20;;;;;;;60.67;31.17;;;5.40;99.90;;;;;;5033395;28;20037;-80
2021/03/10 07:29:46;;;;;;;64.20;33.33;;;5.40;99.90;;;;;;5052928;28;20393;-81
2021/03/10 07:32:22;;;;;;;63.50;33.65;;;5.50;99.90;;;;;;5036637;28;20142;-80
2021/03/10 07:35:08;;;;;;;64.95;33.08;;;5.40;99.90;;;;;;5035881;28;20068;-78
2021/03/10 07:37:36;;;;;;;59.03;32.88;;;5.30;99.90;;;;;;5042517;28;20390;-87
2021/03/10 07:40:15;;;;;;;66.32;32.17;;;5.30;99.90;;;;;;5037708;28;20029;-81
2021/03/10 07:42:56;;;;;;;64.32;32.88;;;5.30;99.90;;;;;;5038192;28;20112;-81
2021/03/10 07:45:42;;;;;;;58.70;30.65;;;5.30;99.90;;;;;;5034615;28;20238;-86
2021/03/10 07:48:08;;;;;;;60.92;32.15;;;5.40;99.90;;;;;;5044733;28;20394;-81
2021/03/10 07:50:42;;;;;;;60.72;32.83;;;5.40;99.90;;;;;;5037127;28;20041;-80
2021/03/10 07:53:09;;;;;;;62.10;33.55;;;5.40;99.90;;;;;;5037234;28;20048;-80
2021/03/10 07:55:50;;;;;;;64.85;33.58;;;5.40;99.90;;;;;;5031824;28;20033;-83
2021/03/10 07:58:30;;;;;;;60.65;33.00;;;5.50;99.90;;;;;;5020013;28;20067;-79
2021/03/10 08:00:56;;;;;;;57.53;31.20;;;5.40;99.90;;;;;;5044898;28;20033;-80
2021/03/10 08:03:33;;;;;;;61.22;32.75;;;5.50;99.90;;;;;;5019204;28;20494;-81
2021/03/10 08:06:06;;;;;;;61.20;33.28;;;5.60;99.90;;;;;;5037998;28;20519;-81
2021/03/10 08:08:35;;;;;;;63.17;32.55;;;5.70;99.90;;;;;;5043013;28;20033;-79
2021/03/10 08:11:12;;;;;;;60.47;32.20;;;5.80;99.90;;;;;;5037662;28;20116;-78
2021/03/10 08:13:38;;;;;;;63.60;32.85;;;5.80;99.90;;;;;;5036775;28;20041;-81
2021/03/10 08:16:06;;;;;;;59.65;31.25;;;5.80;99.90;;;;;;5040471;28;20069;-80
2021/03/10 08:18:32;;;;;;;64.53;34.30;;;5.80;99.90;;;;;;5048892;28;20339;-82
2021/03/10 08:21:09;;;;;;;61.13;33.05;;;5.80;99.90;;;;;;5048592;28;20497;-79
2021/03/10 08:23:35;;;;;;;62.45;32.05;;;5.90;99.90;;;;;;5033423;28;20086;-80
2021/03/10 08:26:02;;;;;;;109.18;35.25;;;6.00;99.90;;;;;;5051536;28;20041;-82
2021/03/10 08:28:35;;;;;;;68.13;33.33;;;6.10;99.90;;;;;;5032600;28;20433;-82
2021/03/10 08:31:10;;;;;;;62.42;33.30;;;6.10;99.90;;;;;;5029462;28;20033;-82
2021/03/10 08:33:49;;;;;;;61.70;33.03;;;6.20;99.90;;;;;;5046322;28;20033;-83
2021/03/10 08:36:17;;;;;;;69.70;32.85;;;6.10;99.90;;;;;;5034957;28;20039;-76
2021/03/10 08:38:44;;;;;;;62.13;33.30;;;6.20;99.90;;;;;;5033753;28;20052;-82
2021/03/10 08:41:11;;;;;;;62.20;33.10;;;6.10;99.90;;;;;;5040648;28;20451;-78
2021/03/10 08:43:37;;;;;;;63.80;33.58;;;6.30;99.90;;;;;;5039614;28;20064;-81
2021/03/10 08:46:03;;;;;;;64.97;33.38;;;6.40;99.90;;;;;;5042328;28;20041;-81
2021/03/10 08:48:34;;;;;;;61.65;32.50;;;6.50;99.90;;;;;;5046590;28;20048;-84
2021/03/10 08:51:04;;;;;;;63.75;31.73;;;6.60;99.90;;;;;;5037581;28;20037;-82
2021/03/10 08:53:31;;;;;;;62.38;30.83;;;;;;;;;;5038839;28;20030;-85
2021/03/10 08:56:07;;;;;;;58.55;32.22;;;6.60;99.90;;;;;;5035167;28;20135;-85
2021/03/10 08:58:33;;;;;;;61.92;31.45;;;6.60;99.90;;;;;;5032167;28;20384;-82
2021/03/10 09:00:59;;;;;;;66.30;34.33;;;6.70;99.90;;;;;;5019317;28;20175;-81
2021/03/10 09:03:25;;;;;;;62.20;34.47;;;6.70;99.90;;;;;;5039381;28;20112;-82
2021/03/10 09:05:58;;;;;;;64.78;34.58;;;6.70;99.90;;;;;;5040210;28;20059;-83
2021/03/10 09:08:26;;;;;;;62.17;34.22;;;6.80;99.90;;;;;;5032807;28;20044;-84
2021/03/10 09:10:54;;;;;;;66.45;33.88;;;6.80;99.90;;;;;;5020418;28;20048;-81
2021/03/10 09:13:21;;;;;;;59.08;33.15;;;6.80;99.90;;;;;;5026361;28;20041;-81
2021/03/10 09:15:47;;;;;;;65.45;33.05;;;7.00;99.90;;;;;;5040897;28;20167;-83
2021/03/10 09:18:13;;;;;;;63.70;34.58;;;7.00;99.90;;;;;;5031920;28;20123;-83
2021/03/10 09:20:44;;;;;;;63.60;33.92;;;7.00;99.90;;;;;;5042033;28;20509;-83
2021/03/10 09:23:10;;;;;;;65.85;34.50;;;7.00;99.90;;;;;;5034263;28;20478;-85
2021/03/10 09:25:38;;;;;;;63.30;34.38;;;6.90;99.90;;;;;;5032844;28;20033;-83
2021/03/10 09:28:12;;;;;;;62.63;32.70;;;7.00;99.90;;;;;;5031706;28;20037;-82
2021/03/10 09:30:44;;;;;;;65.10;33.72;;;6.90;99.90;;;;;;5032460;28;20041;-81
2021/03/10 09:33:23;;;;;;;64.85;33.40;;;7.10;99.90;;;;;;5044133;28;20438;-81
2021/03/10 09:35:58;;;;;;;62.10;33.85;;;7.20;99.90;;;;;;5036526;28;20037;-84
2021/03/10 09:38:25;;;;;;;64.28;35.33;;;7.10;99.90;;;;;;5033299;28;20593;-85
2021/03/10 09:40:54;;;;;;;67.63;35.90;;;7.00;99.90;;;;;;5049501;28;20067;-83
2021/03/10 09:43:21;;;;;;;65.43;34.53;;;7.10;99.90;;;;;;5033858;28;20086;-83
2021/03/10 09:45:48;;;;;;;64.55;33.85;;;7.10;99.90;;;;;;5054325;28;20458;-85
2021/03/10 09:48:27;;;;;;;67.80;33.90;;;7.20;99.90;;;;;;5035438;28;20038;-82
2021/03/10 09:51:05;;;;;;;60.65;33.85;;;7.30;99.90;;;;;;5032453;28;20041;-84
2021/03/10 09:53:32;;;;;;;55.00;31.52;;;7.50;99.90;;;;;;5034395;28;20065;-82
2021/03/10 09:56:09;;;;;;;63.33;33.55;;;7.50;99.90;;;;;;5030935;28;20044;-86
2021/03/10 09:58:51;;;;;;;59.22;31.90;;;7.60;99.90;;;;;;5033901;28;20063;-85
2021/03/10 10:01:18;;;;;;;64.93;34.42;;;7.80;99.90;;;;;;5025908;28;20051;-83
2021/03/10 10:03:44;;;;;;;64.00;33.92;;;7.80;99.90;;;;;;5025736;28;20044;-82
2021/03/10 10:06:17;;;;;;;59.20;34.03;;;7.80;99.90;;;;;;5018477;28;20041;-82
2021/03/10 10:08:48;;;;;;;58.75;33.58;;;7.90;99.90;;;;;;5035083;28;20555;-79
2021/03/10 10:11:16;;;;;;;58.15;33.05;;;8.00;99.90;;;;;;5034030;28;20780;-84
2021/03/10 10:13:47;;;;;;;52.85;30.67;;;8.10;99.90;;;;;;5035278;28;20064;-84
2021/03/10 10:16:13;;;;;;;52.63;29.83;;;8.20;99.90;;;;;;5034758;28;20350;-86
2021/03/10 10:18:39;;;;;;;53.95;31.02;;;8.40;99.90;;;;;;5028693;28;20551;-79
2021/03/10 10:21:06;;;;;;;61.10;32.45;;;8.40;99.90;;;;;;5032436;28;20571;-86
2021/03/10 10:23:32;;;;;;;59.72;33.83;;;8.40;99.90;;;;;;5033674;28;20083;-80
2021/03/10 10:25:58;;;;;;;54.85;31.63;;;8.30;99.90;;;;;;5035350;28;20039;-82
2021/03/10 10:28:23;;;;;;;59.40;34.15;;;8.40;99.90;;;;;;5037106;28;20282;-82
2021/03/10 10:30:49;;;;;;;55.92;31.23;;;8.40;99.90;;;;;;5036515;28;20059;-80
2021/03/10 10:33:15;;;;;;;56.40;32.80;;;8.60;99.90;;;;;;5037435;28;20040;-85
2021/03/10 10:35:41;;;;;;;57.83;31.52;;;8.80;99.60;;;;;;5033536;28;20036;-81
2021/03/10 10:38:08;;;;;;;56.80;31.95;;;8.80;99.30;;;;;;5045612;28;20037;-82
2021/03/10 10:40:36;;;;;;;52.45;31.63;;;8.80;99.40;;;;;;5043924;28;20047;-85
2021/03/10 10:43:02;;;;;;;53.50;31.40;;;8.90;99.30;;;;;;5035659;28;20033;-83
2021/03/10 10:45:28;;;;;;;60.38;31.33;;;9.00;99.40;;;;;;5044554;28;20112;-80
2021/03/10 10:47:53;;;;;;;49.65;27.42;;;9.20;98.80;;;;;;5020182;28;20045;-86
2021/03/10 10:50:19;;;;;;;53.70;29.83;;;9.40;98.20;;;;;;5038483;28;20063;-82
2021/03/10 10:52:45;;;;;;;50.13;29.23;;;11.20;98.40;;;;;;5019493;28;20406;-80
2021/03/10 10:55:13;;;;;;;50.92;29.23;;;9.50;97.80;;;;;;5038118;28;20037;-81
2021/03/10 10:57:39;;;;;;;51.38;30.77;;;9.50;97.40;;;;;;5038978;28;20549;-83
2021/03/10 11:00:10;;;;;;;49.53;29.23;;;9.60;97.30;;;;;;5039906;28;20143;-81
2021/03/10 11:02:35;;;;;;;;;;;9.40;97.90;;;;;;5042282;28;20494;-83
2021/03/10 11:05:01;;;;;;;50.95;28.38;;;9.60;97.90;;;;;;5019997;28;19928;-80
2021/03/10 11:07:27;;;;;;;47.25;28.95;;;11.40;97.80;;;;;;5035336;28;20079;-84
2021/03/10 11:09:53;;;;;;;51.80;28.70;;;9.60;97.80;;;;;;5036307;28;20406;-83
2021/03/10 11:12:18;;;;;;;52.22;29.38;;;9.70;97.40;;;;;;5017988;28;20041;-83
2021/03/10 11:14:44;;;;;;;47.70;29.08;;;10.00;97.00;;;;;;5039643;28;20065;-86
2021/03/10 11:17:10;;;;;;;51.17;30.15;;;10.00;96.60;;;;;;5024760;28;20044;-79
2021/03/10 11:19:38;;;;;;;49.20;29.60;;;10.00;96.80;;;;;;5042303;28;20138;-78
2021/03/10 11:22:04;;;;;;;47.60;27.75;;;12.00;97.70;;;;;;5042058;28;20025;-84
2021/03/10 11:24:30;;;;;;;46.88;29.23;;;10.30;96.50;;;;;;5041664;28;20037;-81
2021/03/10 11:26:56;;;;;;;47.30;29.63;;;10.30;95.60;;;;;;5040907;28;20235;-82
2021/03/10 11:29:22;;;;;;;45.30;27.77;;;10.20;96.10;;;;;;5034405;28;20053;-84
2021/03/10 11:31:48;;;;;;;46.83;27.95;;;10.10;95.70;;;;;;5044214;28;20048;-81
2021/03/10 11:34:15;;;;;;;46.05;26.92;;;10.00;95.80;;;;;;5042058;28;20033;-87
2021/03/10 11:36:41;;;;;;;43.95;28.00;;;10.70;96.40;;;;;;5037655;28;20056;-81
2021/03/10 11:39:07;;;;;;;46.72;29.45;;;10.10;95.70;;;;;;5046958;28;20028;-83
2021/03/10 11:41:36;;;;;;;43.70;27.50;;;10.10;95.70;;;;;;5040780;28;20033;-82
2021/03/10 11:44:04;;;;;;;44.00;29.15;;;10.20;95.80;;;;;;5037472;28;20033;-81
2021/03/10 11:46:29;;;;;;;49.03;28.35;;;10.20;95.70;;;;;;5041693;28;20082;-80
2021/03/10 11:48:55;;;;;;;42.42;26.90;;;11.90;95.60;;;;;;5040362;28;20449;-83
2021/03/10 11:51:21;;;;;;;43.58;26.30;;;10.40;94.50;;;;;;5038737;28;20052;-84
2021/03/10 11:53:46;;;;;;;39.72;25.25;;;10.50;93.90;;;;;;5037319;28;20558;-85
2021/03/10 11:56:12;;;;;;;38.40;23.58;;;10.40;94.10;;;;;;5044249;28;20048;-83
2021/03/10 11:58:39;;;;;;;39.00;25.42;;;11.10;93.00;;;;;;5036667;28;20091;-82
2021/03/10 12:01:04;;;;;;;39.78;25.23;;;10.50;92.90;;;;;;5038410;28;20577;-82
2021/03/10 12:03:30;;;;;;;38.47;23.83;;;10.50;93.10;;;;;;5044008;28;20132;-81
2021/03/10 12:05:56;;;;;;;36.10;23.58;;;11.50;93.10;;;;;;5042915;28;20049;-83
2021/03/10 12:08:22;;;;;;;37.13;24.48;;;10.90;92.30;;;;;;5035187;28;20049;-81
2021/03/10 12:10:47;;;;;;;37.38;23.50;;;11.00;92.00;;;;;;5042143;28;20440;-81
2021/03/10 12:13:13;;;;;;;33.58;22.45;;;11.00;92.00;;;;;;5040065;28;20044;-83
2021/03/10 12:15:39;;;;;;;35.47;23.35;;;11.60;92.00;;;;;;5036585;28;20037;-83
2021/03/10 12:18:06;;;;;;;37.35;20.95;;;10.90;92.10;;;;;;5040739;28;20187;-79
2021/03/10 12:20:33;;;;;;;37.42;23.77;;;12.30;92.00;;;;;;5052272;28;20033;-80
2021/03/10 12:22:58;;;;;;;33.00;20.65;;;11.20;91.20;;;;;;5039317;28;20497;-80
2021/03/10 12:25:24;;;;;;;37.33;21.20;;;11.50;91.20;;;;;;5033304;28;20068;-81
2021/03/10 12:27:50;;;;;;;34.33;21.45;;;11.90;90.90;;;;;;5043432;28;20063;-81
2021/03/10 12:30:17;;;;;;;31.23;19.92;;;11.40;90.80;;;;;;5045378;28;20557;-81
2021/03/10 12:32:43;;;;;;;33.38;18.95;;;11.50;88.80;;;;;;5059958;28;20064;-82
2021/03/10 12:35:09;;;;;;;29.30;17.48;;;11.50;88.50;;;;;;5023625;28;20068;-81
2021/03/10 12:37:35;;;;;;;32.22;18.92;;;11.60;87.10;;;;;;5019788;28;20122;-79
2021/03/10 12:40:01;;;;;;;30.23;18.77;;;11.40;87.50;;;;;;5045450;28;20450;-84
2021/03/10 12:42:27;;;;;;;30.77;19.35;;;11.30;88.00;;;;;;5040448;28;20029;-83
2021/03/10 12:44:53;;;;;;;34.47;18.52;;;11.30;87.90;;;;;;5044867;28;20096;-83